KLEB

Lebanon Municipal Airport

Lebanon, New Hampshire, USA
METAR KLEB 161353Z 00000KT 7SM FEW100 M13/M16 A2984 RMK AO2 SLP123 T11331156
Observed Flight Rules
Dec-16 @ 13:53 UTC (42 minutes ago) Visual Flight Rules
Wind Visibility Clouds
Calm 7 miles
  • Few at 10,000' AGL
Temperatures Readings
Current -13°C / 9°F
Dewpoint -16°C / 3°F
Humidity 78%
Altimeter 29.84" Hg
Pressure 1012.3 hPa
Elevation 171
METAR KLEB 161353Z 00000KT 7SM FEW100 M13/M16 A2984 RMK AO2 SLP123 T11331156
Observed Flight Rules
Dec-16 @ 13:53 UTC
(42 minutes ago)
VFR
Wind Visibility
Calm 7 miles
Clouds
  • Few at 10,000' AGL
Temperature Dewpoint
-13°C / 9°F -16°C / 3°F
Humidity Altimeter Pressure
78% 29.84" Hg 1012.3 hPa